Detalii statie BARBIERU PROD [00001CE8]

Toti senzorii

Date Temperatura solului [C]Precipitatii [mm]Voltaj baterie [mV]Leaf Wetness [Min]HC Air temperature [C]HC Relative humidity [%]Punctul de roua [C]
medieminmaxsumaultimatimpmedieminmaxmediemediemin
2018-08-12 11:00:00 24.6 24.4 25.1 0 7246 30.16 28.79 31.14 28.91 0
2018-08-12 12:00:00 25.3 25.1 25.7 0 7246 31.25 29.4 32.69 22.27 8.3 0
2018-08-12 13:00:00 26.1 25.9 26.6 0 7246 31.51 30.56 32.3 1.7 -0.5 0
2018-08-12 14:00:00 27 26.7 27.5 0 7246 32.28 30.32 33.61 13.2 -0.9 -12.5
2018-08-12 15:00:00 27.7 27.5 28 0 7246 32.13 30.22 33.2 1.77 0
2018-08-12 16:00:00 28.2 27.9 28.6 0 7246 31.57 29.69 32.84 0 0 0
2018-08-12 17:00:00 28.5 28.3 28.7 0 7246 30.42 29.07 31.83 0 0 0
2018-08-12 18:00:00 28.7 28.6 28.8 0 7254 30.02 29.09 31.36 0 0 0
2018-08-12 19:00:00 28.7 28.6 28.9 0 7226 27.3 25.96 28.83 0 0 0
2018-08-12 20:00:00 28.6 28.5 28.8 0 6894 23.13 21.46 25.26 5 0
2018-08-12 21:00:00 28.4 28.2 28.7 0 6874 21.81 21.07 22.53 0 0 0
2018-08-12 22:00:00 28.1 27.9 28.4 0 6864 21.32 20.91 21.86 0 0 0
2018-08-12 23:00:00 27.7 27.6 27.9 0 6854 18.33 16.68 19.95 0 0 0
2018-08-13 00:00:00 27.4 27.3 27.6 0 6854 17.1 15.44 20.45 0 0 0
2018-08-13 01:00:00 26.9 26.7 27.1 0 6844 20.33 19.01 21.5 10.67 2.2 0
2018-08-13 02:00:00 26.5 26.4 26.8 0 6854 18.28 15.24 21.04 0 0 0
2018-08-13 03:00:00 26.2 26 26.5 0 6854 15.87 14.91 16.58 0 0 0
2018-08-13 04:00:00 25.8 25.6 26.1 0 6834 15.6 15.1 16.26 0 0 0
2018-08-13 05:00:00 25.5 25.4 25.8 0 6834 14.94 14.78 15.11 0 0 0
2018-08-13 06:00:00 25.2 25 25.5 0 6854 14.75 14.3 15.14 0 0 0
2018-08-13 07:00:00 24.9 24.7 25.1 0 6894 16.93 14.67 19.68 0 0 0
2018-08-13 08:00:00 24.5 24.5 24.7 0 6952 23.14 20.35 25.75 0 0 0
2018-08-13 09:00:00 24.4 24.4 24.6 0 7010 26.37 24.72 28.81 0 0 0
2018-08-13 10:00:00 24.6 24.5 24.9 0 7118 28.94 27.72 30.14 0 0 0
2018-08-13 11:00:00 25 24.7 25.4 0 7246 31.57 30.43 32.52 0 0 0
2018-08-13 12:00:00 25.7 25.2 26.1 0 7246 33.22 32.14 34.15 0 0 0
2018-08-13 13:00:00 26.5 26.2 27 0 7246 33.92 32.77 35.67 0 0 0
2018-08-13 14:00:00 27.4 27 27.9 0 7246 33.93 32.49 35.53 0 0 0
2018-08-13 15:00:00 28.2 27.7 28.6 0 7246 33.27 31.32 34.74 1.09 0
2018-08-13 16:00:00 28.7 28.6 29.1 0 7246 33.13 31.97 34.43 0 0 0
2018-08-13 17:00:00 29 28.8 29.3 0 7236 31.94 28.85 34.14 0 0 0
2018-08-13 18:00:00 29.2 29.2 29.3 0 7254 28.44 27.63 29.44 0 0 0
2018-08-13 19:00:00 29.2 29 29.3 0 7080 27.23 26.09 28.03 0 0 0
2018-08-13 20:00:00 29.1 28.8 29.2 0 6894 23.66 22.41 25.66 0 0 0
2018-08-13 21:00:00 28.8 28.6 29.1 0 6864 23.78 22.7 24.85 0 0 0
2018-08-13 22:00:00 28.4 28.2 28.7 0 6864 22.7 21.75 23.05 0 0 0
2018-08-13 23:00:00 28 27.8 28.3 0 6864 20.79 19.85 21.73 0 0 0
2018-08-14 00:00:00 27.6 27.4 27.8 0 6854 18.89 16.67 21.3 0 0 0
2018-08-14 01:00:00 27.2 27.1 27.5 0 6854 17.97 14.78 22.21 0 0 0
2018-08-14 02:00:00 26.8 26.6 27 0 6844 14.6 14.26 15.06 0 0 0
2018-08-14 03:00:00 26.4 26.3 26.6 0 6834 14.3 13.84 14.76 0 0 0
2018-08-14 04:00:00 26.1 25.9 26.3 0 6816 13.64 13.2 14.15 0 0 0
2018-08-14 05:00:00 25.7 25.4 26 0 6816 13.91 12.65 15.36 0 0 0
2018-08-14 06:00:00 25.3 25 25.5 0 6834 12.93 12.5 13.64 0 0 0
2018-08-14 07:00:00 24.9 24.8 25.3 0 6884 17.54 13.76 21.26 0 0 0
2018-08-14 08:00:00 24.6 24.6 24.8 0 6922 24.18 21.94 25.71 0 0 0
2018-08-14 09:00:00 24.5 24.4 24.6 0 6972 27.61 25.66 29.56 0 0 0
2018-08-14 10:00:00 24.6 24.5 24.7 0 7098 29.87 29.11 30.6 0 0 0